sensor_id;sensor_type;location;lat;lon;timestamp;temperature;humidity
5304;DHT22;2674;49.722;10.892;2023-07-20T00:01:14;17.70;1.00
5304;DHT22;2674;49.722;10.892;2023-07-20T00:03:40;17.60;1.00
5304;DHT22;2674;49.722;10.892;2023-07-20T00:06:06;17.60;1.00
5304;DHT22;2674;49.722;10.892;2023-07-20T00:08:32;17.60;1.00
5304;DHT22;2674;49.722;10.892;2023-07-20T00:10:58;17.60;1.00
5304;DHT22;2674;49.722;10.892;2023-07-20T00:13:24;17.60;1.00
5304;DHT22;2674;49.722;10.892;2023-07-20T00:15:50;17.60;1.00
5304;DHT22;2674;49.722;10.892;2023-07-20T00:18:16;17.60;1.00
5304;DHT22;2674;49.722;10.892;2023-07-20T00:20:42;17.60;1.00
5304;DHT22;2674;49.722;10.892;2023-07-20T00:23:08;17.60;1.00
5304;DHT22;2674;49.722;10.892;2023-07-20T00:25:34;17.60;1.00
5304;DHT22;2674;49.722;10.892;2023-07-20T00:28:01;17.50;1.00
5304;DHT22;2674;49.722;10.892;2023-07-20T00:30:27;17.50;1.00
5304;DHT22;2674;49.722;10.892;2023-07-20T00:32:53;17.50;1.00
5304;DHT22;2674;49.722;10.892;2023-07-20T00:35:18;17.50;1.00
5304;DHT22;2674;49.722;10.892;2023-07-20T00:37:44;17.40;1.00
5304;DHT22;2674;49.722;10.892;2023-07-20T00:40:10;17.20;1.00
5304;DHT22;2674;49.722;10.892;2023-07-20T00:42:36;17.10;1.00
5304;DHT22;2674;49.722;10.892;2023-07-20T00:45:02;16.90;1.00
5304;DHT22;2674;49.722;10.892;2023-07-20T00:47:28;16.90;7.00
5304;DHT22;2674;49.722;10.892;2023-07-20T00:49:54;16.80;7.60
5304;DHT22;2674;49.722;10.892;2023-07-20T00:52:25;16.70;23.90
5304;DHT22;2674;49.722;10.892;2023-07-20T00:54:51;16.70;41.50
5304;DHT22;2674;49.722;10.892;2023-07-20T00:57:18;16.80;34.80
5304;DHT22;2674;49.722;10.892;2023-07-20T00:59:45;16.70;46.60
5304;DHT22;2674;49.722;10.892;2023-07-20T01:02:11;16.70;38.50
5304;DHT22;2674;49.722;10.892;2023-07-20T01:04:36;16.70;65.40
5304;DHT22;2674;49.722;10.892;2023-07-20T01:07:23;16.70;70.30
5304;DHT22;2674;49.722;10.892;2023-07-20T01:10:12;16.70;63.40
5304;DHT22;2674;49.722;10.892;2023-07-20T01:12:42;16.70;60.80
5304;DHT22;2674;49.722;10.892;2023-07-20T01:15:09;16.70;72.80
5304;DHT22;2674;49.722;10.892;2023-07-20T01:17:36;16.70;64.80
5304;DHT22;2674;49.722;10.892;2023-07-20T01:20:02;16.70;64.70
5304;DHT22;2674;49.722;10.892;2023-07-20T01:25:55;16.70;53.30
5304;DHT22;2674;49.722;10.892;2023-07-20T01:31:24;16.80;64.50
5304;DHT22;2674;49.722;10.892;2023-07-20T01:33:52;16.80;73.90
5304;DHT22;2674;49.722;10.892;2023-07-20T01:36:19;16.80;78.50
5304;DHT22;2674;49.722;10.892;2023-07-20T01:38:47;16.80;62.90
5304;DHT22;2674;49.722;10.892;2023-07-20T01:41:14;16.80;55.00
5304;DHT22;2674;49.722;10.892;2023-07-20T01:43:40;16.80;52.90
5304;DHT22;2674;49.722;10.892;2023-07-20T01:46:06;16.80;50.80
5304;DHT22;2674;49.722;10.892;2023-07-20T01:48:32;16.80;49.70
5304;DHT22;2674;49.722;10.892;2023-07-20T01:50:58;16.80;50.80
5304;DHT22;2674;49.722;10.892;2023-07-20T01:53:23;16.80;62.50
5304;DHT22;2674;49.722;10.892;2023-07-20T01:55:49;16.80;70.40
5304;DHT22;2674;49.722;10.892;2023-07-20T01:58:17;16.90;65.20
5304;DHT22;2674;49.722;10.892;2023-07-20T02:00:43;16.90;67.30
5304;DHT22;2674;49.722;10.892;2023-07-20T02:03:09;16.90;60.70
5304;DHT22;2674;49.722;10.892;2023-07-20T02:05:35;16.90;63.10
5304;DHT22;2674;49.722;10.892;2023-07-20T02:08:01;16.80;60.50
5304;DHT22;2674;49.722;10.892;2023-07-20T02:10:26;16.80;59.00
5304;DHT22;2674;49.722;10.892;2023-07-20T02:12:52;16.80;56.00
5304;DHT22;2674;49.722;10.892;2023-07-20T02:15:18;16.80;54.40
5304;DHT22;2674;49.722;10.892;2023-07-20T02:17:45;16.80;55.90
5304;DHT22;2674;49.722;10.892;2023-07-20T02:20:11;16.70;49.40
5304;DHT22;2674;49.722;10.892;2023-07-20T02:22:37;16.70;60.70
5304;DHT22;2674;49.722;10.892;2023-07-20T02:25:04;16.70;65.10
5304;DHT22;2674;49.722;10.892;2023-07-20T02:27:30;16.70;63.70
5304;DHT22;2674;49.722;10.892;2023-07-20T02:29:56;16.70;74.90
5304;DHT22;2674;49.722;10.892;2023-07-20T02:32:22;16.70;79.20
5304;DHT22;2674;49.722;10.892;2023-07-20T02:34:48;16.70;88.30
5304;DHT22;2674;49.722;10.892;2023-07-20T02:37:14;16.70;84.50
5304;DHT22;2674;49.722;10.892;2023-07-20T02:39:40;16.70;82.30
5304;DHT22;2674;49.722;10.892;2023-07-20T02:42:06;16.70;89.50
5304;DHT22;2674;49.722;10.892;2023-07-20T02:44:32;16.70;90.40
5304;DHT22;2674;49.722;10.892;2023-07-20T02:46:57;16.60;84.60
5304;DHT22;2674;49.722;10.892;2023-07-20T02:49:23;16.60;87.20
5304;DHT22;2674;49.722;10.892;2023-07-20T02:51:49;16.50;99.00
5304;DHT22;2674;49.722;10.892;2023-07-20T02:54:15;16.50;99.90
5304;DHT22;2674;49.722;10.892;2023-07-20T02:56:44;16.50;99.90
5304;DHT22;2674;49.722;10.892;2023-07-20T02:59:10;16.50;99.90
5304;DHT22;2674;49.722;10.892;2023-07-20T03:01:37;16.50;99.90
5304;DHT22;2674;49.722;10.892;2023-07-20T03:04:03;16.50;99.90
5304;DHT22;2674;49.722;10.892;2023-07-20T03:06:29;16.50;99.90
5304;DHT22;2674;49.722;10.892;2023-07-20T03:08:56;16.50;99.90
5304;DHT22;2674;49.722;10.892;2023-07-20T03:11:22;16.60;99.90
5304;DHT22;2674;49.722;10.892;2023-07-20T03:13:48;16.60;99.90
5304;DHT22;2674;49.722;10.892;2023-07-20T03:16:18;16.60;99.90
5304;DHT22;2674;49.722;10.892;2023-07-20T03:18:44;16.60;99.90
5304;DHT22;2674;49.722;10.892;2023-07-20T03:21:11;16.60;99.90
5304;DHT22;2674;49.722;10.892;2023-07-20T03:23:37;16.60;99.90
5304;DHT22;2674;49.722;10.892;2023-07-20T03:26:03;16.70;99.00
5304;DHT22;2674;49.722;10.892;2023-07-20T03:28:29;16.60;94.50
5304;DHT22;2674;49.722;10.892;2023-07-20T03:30:59;16.60;92.90
5304;DHT22;2674;49.722;10.892;2023-07-20T03:33:29;16.60;91.60
5304;DHT22;2674;49.722;10.892;2023-07-20T03:35:55;16.60;97.20
5304;DHT22;2674;49.722;10.892;2023-07-20T03:38:26;16.60;97.90
5304;DHT22;2674;49.722;10.892;2023-07-20T03:40:57;16.60;98.00
5304;DHT22;2674;49.722;10.892;2023-07-20T03:43:25;16.60;93.60
5304;DHT22;2674;49.722;10.892;2023-07-20T03:45:52;16.60;93.30
5304;DHT22;2674;49.722;10.892;2023-07-20T03:48:22;16.60;88.40
5304;DHT22;2674;49.722;10.892;2023-07-20T03:50:49;16.70;90.90
5304;DHT22;2674;49.722;10.892;2023-07-20T03:53:16;16.70;75.70
5304;DHT22;2674;49.722;10.892;2023-07-20T03:55:45;16.70;63.10
5304;DHT22;2674;49.722;10.892;2023-07-20T03:58:12;16.70;51.70
5304;DHT22;2674;49.722;10.892;2023-07-20T04:00:38;16.60;36.30
5304;DHT22;2674;49.722;10.892;2023-07-20T04:03:05;16.60;26.00
5304;DHT22;2674;49.722;10.892;2023-07-20T04:05:31;16.70;23.00
5304;DHT22;2674;49.722;10.892;2023-07-20T04:07:58;16.60;22.30
5304;DHT22;2674;49.722;10.892;2023-07-20T04:10:24;16.60;18.60
5304;DHT22;2674;49.722;10.892;2023-07-20T04:12:50;16.60;29.00
5304;DHT22;2674;49.722;10.892;2023-07-20T04:15:16;16.60;24.90
5304;DHT22;2674;49.722;10.892;2023-07-20T04:17:41;16.60;24.70
5304;DHT22;2674;49.722;10.892;2023-07-20T04:20:08;16.60;28.50
5304;DHT22;2674;49.722;10.892;2023-07-20T04:22:34;16.60;33.60
5304;DHT22;2674;49.722;10.892;2023-07-20T04:25:00;16.60;36.30
5304;DHT22;2674;49.722;10.892;2023-07-20T04:27:29;16.60;42.40
5304;DHT22;2674;49.722;10.892;2023-07-20T04:29:55;16.60;34.80
5304;DHT22;2674;49.722;10.892;2023-07-20T04:32:21;16.70;81.90
5304;DHT22;2674;49.722;10.892;2023-07-20T04:34:47;16.70;41.30
5304;DHT22;2674;49.722;10.892;2023-07-20T04:37:13;16.70;29.00
5304;DHT22;2674;49.722;10.892;2023-07-20T04:39:39;16.70;22.00
5304;DHT22;2674;49.722;10.892;2023-07-20T04:42:05;16.70;13.50
5304;DHT22;2674;49.722;10.892;2023-07-20T04:44:31;16.80;9.80
5304;DHT22;2674;49.722;10.892;2023-07-20T04:46:56;16.80;7.60
5304;DHT22;2674;49.722;10.892;2023-07-20T04:49:22;16.80;11.10
5304;DHT22;2674;49.722;10.892;2023-07-20T04:51:48;16.90;4.20
5304;DHT22;2674;49.722;10.892;2023-07-20T04:54:14;16.90;1.00
5304;DHT22;2674;49.722;10.892;2023-07-20T04:56:40;16.90;1.00
5304;DHT22;2674;49.722;10.892;2023-07-20T04:59:06;17.00;1.00
5304;DHT22;2674;49.722;10.892;2023-07-20T05:01:31;17.00;1.00
5304;DHT22;2674;49.722;10.892;2023-07-20T05:03:57;17.10;1.00
5304;DHT22;2674;49.722;10.892;2023-07-20T05:06:23;17.20;1.00
5304;DHT22;2674;49.722;10.892;2023-07-20T05:08:49;17.30;1.00
5304;DHT22;2674;49.722;10.892;2023-07-20T05:11:15;17.50;1.00
5304;DHT22;2674;49.722;10.892;2023-07-20T05:13:41;17.50;1.00
5304;DHT22;2674;49.722;10.892;2023-07-20T05:16:07;17.50;1.00
5304;DHT22;2674;49.722;10.892;2023-07-20T05:18:33;17.50;1.00
5304;DHT22;2674;49.722;10.892;2023-07-20T05:20:58;17.70;1.00
5304;DHT22;2674;49.722;10.892;2023-07-20T05:23:24;18.00;1.00
5304;DHT22;2674;49.722;10.892;2023-07-20T05:25:58;18.10;1.00
5304;DHT22;2674;49.722;10.892;2023-07-20T05:28:24;18.60;1.00
5304;DHT22;2674;49.722;10.892;2023-07-20T05:30:51;18.80;1.00
5304;DHT22;2674;49.722;10.892;2023-07-20T05:33:18;19.00;1.00
5304;DHT22;2674;49.722;10.892;2023-07-20T05:35:44;19.20;1.00
5304;DHT22;2674;49.722;10.892;2023-07-20T05:38:10;19.30;1.00
5304;DHT22;2674;49.722;10.892;2023-07-20T05:40:45;19.30;1.00
5304;DHT22;2674;49.722;10.892;2023-07-20T05:43:12;19.40;1.00
5304;DHT22;2674;49.722;10.892;2023-07-20T05:45:42;19.50;1.00
5304;DHT22;2674;49.722;10.892;2023-07-20T05:48:08;19.50;1.00
5304;DHT22;2674;49.722;10.892;2023-07-20T05:50:37;19.60;1.00
5304;DHT22;2674;49.722;10.892;2023-07-20T05:53:03;19.70;1.00
5304;DHT22;2674;49.722;10.892;2023-07-20T05:55:29;19.80;1.00
5304;DHT22;2674;49.722;10.892;2023-07-20T05:57:55;19.80;1.00
5304;DHT22;2674;49.722;10.892;2023-07-20T06:00:21;19.70;1.00
5304;DHT22;2674;49.722;10.892;2023-07-20T06:02:52;19.80;1.00
5304;DHT22;2674;49.722;10.892;2023-07-20T06:05:19;19.90;1.00
5304;DHT22;2674;49.722;10.892;2023-07-20T06:07:46;20.00;1.00
5304;DHT22;2674;49.722;10.892;2023-07-20T06:10:12;20.10;99.90
5304;DHT22;2674;49.722;10.892;2023-07-20T06:12:38;20.10;99.90
5304;DHT22;2674;49.722;10.892;2023-07-20T06:15:05;20.10;1.00
5304;DHT22;2674;49.722;10.892;2023-07-20T06:17:31;20.20;98.90
5304;DHT22;2674;49.722;10.892;2023-07-20T06:19:57;20.20;99.90
5304;DHT22;2674;49.722;10.892;2023-07-20T06:22:23;20.20;1.00
5304;DHT22;2674;49.722;10.892;2023-07-20T06:24:48;20.20;1.00
5304;DHT22;2674;49.722;10.892;2023-07-20T06:27:14;20.10;99.90
5304;DHT22;2674;49.722;10.892;2023-07-20T06:29:40;20.10;1.00
5304;DHT22;2674;49.722;10.892;2023-07-20T06:32:06;20.20;1.00
5304;DHT22;2674;49.722;10.892;2023-07-20T06:34:33;20.30;61.30
5304;DHT22;2674;49.722;10.892;2023-07-20T06:37:03;20.40;1.00
5304;DHT22;2674;49.722;10.892;2023-07-20T06:39:30;20.40;43.70
5304;DHT22;2674;49.722;10.892;2023-07-20T06:41:56;20.30;1.00
5304;DHT22;2674;49.722;10.892;2023-07-20T06:44:22;20.40;1.00
5304;DHT22;2674;49.722;10.892;2023-07-20T06:46:48;20.50;1.00
5304;DHT22;2674;49.722;10.892;2023-07-20T06:49:25;20.50;1.00
5304;DHT22;2674;49.722;10.892;2023-07-20T06:51:51;20.60;99.90
5304;DHT22;2674;49.722;10.892;2023-07-20T06:54:17;20.60;1.00
5304;DHT22;2674;49.722;10.892;2023-07-20T06:56:43;20.70;1.00
5304;DHT22;2674;49.722;10.892;2023-07-20T06:59:09;20.70;99.90
5304;DHT22;2674;49.722;10.892;2023-07-20T07:01:35;20.70;1.00
5304;DHT22;2674;49.722;10.892;2023-07-20T07:04:01;20.80;1.00
5304;DHT22;2674;49.722;10.892;2023-07-20T07:06:27;20.80;1.00
5304;DHT22;2674;49.722;10.892;2023-07-20T07:08:53;20.80;1.00
5304;DHT22;2674;49.722;10.892;2023-07-20T07:11:20;20.90;1.00
5304;DHT22;2674;49.722;10.892;2023-07-20T07:13:46;21.00;1.00
5304;DHT22;2674;49.722;10.892;2023-07-20T07:16:12;21.00;99.90
5304;DHT22;2674;49.722;10.892;2023-07-20T07:18:40;21.10;99.90
5304;DHT22;2674;49.722;10.892;2023-07-20T07:21:06;21.20;99.90
5304;DHT22;2674;49.722;10.892;2023-07-20T07:23:31;21.20;99.90
5304;DHT22;2674;49.722;10.892;2023-07-20T07:25:57;21.20;76.70
5304;DHT22;2674;49.722;10.892;2023-07-20T07:28:23;21.30;99.90
5304;DHT22;2674;49.722;10.892;2023-07-20T07:30:49;21.30;99.90
5304;DHT22;2674;49.722;10.892;2023-07-20T07:33:15;21.30;59.50
5304;DHT22;2674;49.722;10.892;2023-07-20T07:35:40;21.20;1.00
5304;DHT22;2674;49.722;10.892;2023-07-20T07:38:06;21.10;83.50
5304;DHT22;2674;49.722;10.892;2023-07-20T07:40:32;20.90;99.90
5304;DHT22;2674;49.722;10.892;2023-07-20T07:42:58;20.90;99.90
5304;DHT22;2674;49.722;10.892;2023-07-20T07:45:24;21.00;99.90
5304;DHT22;2674;49.722;10.892;2023-07-20T07:47:50;21.00;99.90
5304;DHT22;2674;49.722;10.892;2023-07-20T07:50:15;21.00;99.90
5304;DHT22;2674;49.722;10.892;2023-07-20T07:52:41;21.10;54.00
5304;DHT22;2674;49.722;10.892;2023-07-20T07:55:07;21.30;42.30
5304;DHT22;2674;49.722;10.892;2023-07-20T07:57:33;21.40;1.00
5304;DHT22;2674;49.722;10.892;2023-07-20T07:59:59;21.50;1.00
5304;DHT22;2674;49.722;10.892;2023-07-20T08:02:24;21.60;1.00
5304;DHT22;2674;49.722;10.892;2023-07-20T08:04:50;21.80;1.00
5304;DHT22;2674;49.722;10.892;2023-07-20T08:07:17;21.90;1.00
5304;DHT22;2674;49.722;10.892;2023-07-20T08:09:43;22.00;1.00
5304;DHT22;2674;49.722;10.892;2023-07-20T08:12:09;22.10;1.00
5304;DHT22;2674;49.722;10.892;2023-07-20T08:14:35;22.10;1.00
5304;DHT22;2674;49.722;10.892;2023-07-20T08:17:01;22.10;1.00
5304;DHT22;2674;49.722;10.892;2023-07-20T08:19:27;22.00;1.00
5304;DHT22;2674;49.722;10.892;2023-07-20T08:21:53;21.90;1.00
5304;DHT22;2674;49.722;10.892;2023-07-20T08:24:19;22.00;1.00
5304;DHT22;2674;49.722;10.892;2023-07-20T08:26:44;22.20;1.00
5304;DHT22;2674;49.722;10.892;2023-07-20T08:29:10;22.30;1.00
5304;DHT22;2674;49.722;10.892;2023-07-20T08:31:36;22.40;1.00
5304;DHT22;2674;49.722;10.892;2023-07-20T08:34:02;22.50;1.00
5304;DHT22;2674;49.722;10.892;2023-07-20T08:36:29;22.40;1.00
5304;DHT22;2674;49.722;10.892;2023-07-20T08:38:55;22.40;1.00
5304;DHT22;2674;49.722;10.892;2023-07-20T08:41:20;22.50;1.00
5304;DHT22;2674;49.722;10.892;2023-07-20T08:43:47;22.60;1.00
5304;DHT22;2674;49.722;10.892;2023-07-20T08:46:13;22.70;1.00
5304;DHT22;2674;49.722;10.892;2023-07-20T08:48:41;22.60;1.00
5304;DHT22;2674;49.722;10.892;2023-07-20T08:51:10;22.60;1.00
5304;DHT22;2674;49.722;10.892;2023-07-20T08:53:38;22.80;1.00
5304;DHT22;2674;49.722;10.892;2023-07-20T08:56:04;22.70;1.00
5304;DHT22;2674;49.722;10.892;2023-07-20T08:58:30;22.70;1.00
5304;DHT22;2674;49.722;10.892;2023-07-20T09:00:57;22.60;1.00
5304;DHT22;2674;49.722;10.892;2023-07-20T09:03:25;22.40;1.00
5304;DHT22;2674;49.722;10.892;2023-07-20T09:05:50;22.40;1.00
5304;DHT22;2674;49.722;10.892;2023-07-20T09:08:16;22.50;1.00
5304;DHT22;2674;49.722;10.892;2023-07-20T09:10:42;22.70;1.00
5304;DHT22;2674;49.722;10.892;2023-07-20T09:13:08;22.80;1.00
5304;DHT22;2674;49.722;10.892;2023-07-20T09:15:34;22.70;1.00
5304;DHT22;2674;49.722;10.892;2023-07-20T09:18:02;22.70;1.00
5304;DHT22;2674;49.722;10.892;2023-07-20T09:20:31;22.80;1.00
5304;DHT22;2674;49.722;10.892;2023-07-20T09:22:57;22.90;1.00
5304;DHT22;2674;49.722;10.892;2023-07-20T09:25:23;23.20;1.00
5304;DHT22;2674;49.722;10.892;2023-07-20T09:27:49;23.30;1.00
5304;DHT22;2674;49.722;10.892;2023-07-20T09:30:16;23.40;1.00
5304;DHT22;2674;49.722;10.892;2023-07-20T09:32:49;23.30;1.00
5304;DHT22;2674;49.722;10.892;2023-07-20T09:37:59;23.20;1.00
5304;DHT22;2674;49.722;10.892;2023-07-20T09:40:28;23.30;1.00
5304;DHT22;2674;49.722;10.892;2023-07-20T09:42:55;23.60;1.00
5304;DHT22;2674;49.722;10.892;2023-07-20T09:45:41;23.70;1.00
5304;DHT22;2674;49.722;10.892;2023-07-20T09:48:08;23.90;1.00
5304;DHT22;2674;49.722;10.892;2023-07-20T09:50:40;24.00;1.00
5304;DHT22;2674;49.722;10.892;2023-07-20T09:53:09;23.90;1.00
5304;DHT22;2674;49.722;10.892;2023-07-20T09:55:37;23.90;1.00
5304;DHT22;2674;49.722;10.892;2023-07-20T09:58:04;23.80;1.00
5304;DHT22;2674;49.722;10.892;2023-07-20T10:00:34;24.00;1.00
5304;DHT22;2674;49.722;10.892;2023-07-20T10:03:03;24.20;99.90
5304;DHT22;2674;49.722;10.892;2023-07-20T10:05:35;24.30;99.90
5304;DHT22;2674;49.722;10.892;2023-07-20T10:08:03;24.50;99.90
5304;DHT22;2674;49.722;10.892;2023-07-20T10:10:33;24.70;99.90
5304;DHT22;2674;49.722;10.892;2023-07-20T10:13:01;24.60;99.90
5304;DHT22;2674;49.722;10.892;2023-07-20T10:15:37;24.50;99.90
5304;DHT22;2674;49.722;10.892;2023-07-20T10:18:21;24.30;99.90
5304;DHT22;2674;49.722;10.892;2023-07-20T10:20:49;24.20;99.90
5304;DHT22;2674;49.722;10.892;2023-07-20T10:23:17;24.00;99.90
5304;DHT22;2674;49.722;10.892;2023-07-20T10:25:47;23.80;99.90
5304;DHT22;2674;49.722;10.892;2023-07-20T10:28:13;23.70;99.90
5304;DHT22;2674;49.722;10.892;2023-07-20T10:30:40;23.60;99.90
5304;DHT22;2674;49.722;10.892;2023-07-20T10:33:06;23.50;99.90
5304;DHT22;2674;49.722;10.892;2023-07-20T10:36:01;23.40;99.90
5304;DHT22;2674;49.722;10.892;2023-07-20T10:38:53;23.30;99.90
5304;DHT22;2674;49.722;10.892;2023-07-20T10:41:20;23.30;99.90
5304;DHT22;2674;49.722;10.892;2023-07-20T10:43:48;23.10;99.90
5304;DHT22;2674;49.722;10.892;2023-07-20T10:46:14;23.20;99.90
5304;DHT22;2674;49.722;10.892;2023-07-20T10:49:00;23.50;99.90
5304;DHT22;2674;49.722;10.892;2023-07-20T10:51:27;23.60;99.90
5304;DHT22;2674;49.722;10.892;2023-07-20T10:53:55;23.70;99.90
5304;DHT22;2674;49.722;10.892;2023-07-20T10:56:23;23.80;99.90
5304;DHT22;2674;49.722;10.892;2023-07-20T10:58:58;24.00;99.90
5304;DHT22;2674;49.722;10.892;2023-07-20T11:01:28;24.20;99.90
5304;DHT22;2674;49.722;10.892;2023-07-20T11:03:58;24.60;99.90
5304;DHT22;2674;49.722;10.892;2023-07-20T11:09:12;25.30;99.90
5304;DHT22;2674;49.722;10.892;2023-07-20T11:11:43;25.20;99.90
5304;DHT22;2674;49.722;10.892;2023-07-20T11:14:11;25.20;99.90
5304;DHT22;2674;49.722;10.892;2023-07-20T11:16:46;25.30;99.90
5304;DHT22;2674;49.722;10.892;2023-07-20T11:19:25;25.50;99.90
5304;DHT22;2674;49.722;10.892;2023-07-20T11:21:53;25.40;99.90
5304;DHT22;2674;49.722;10.892;2023-07-20T11:24:19;25.40;99.90
5304;DHT22;2674;49.722;10.892;2023-07-20T11:26:53;25.50;99.90
5304;DHT22;2674;49.722;10.892;2023-07-20T11:29:20;25.70;99.90
5304;DHT22;2674;49.722;10.892;2023-07-20T11:31:47;25.90;99.90
5304;DHT22;2674;49.722;10.892;2023-07-20T11:34:15;26.00;99.90
5304;DHT22;2674;49.722;10.892;2023-07-20T11:36:42;26.10;99.90
5304;DHT22;2674;49.722;10.892;2023-07-20T11:39:13;26.20;99.90
5304;DHT22;2674;49.722;10.892;2023-07-20T11:41:46;26.20;99.90
5304;DHT22;2674;49.722;10.892;2023-07-20T11:44:12;26.20;99.90
5304;DHT22;2674;49.722;10.892;2023-07-20T11:46:42;26.20;99.90
5304;DHT22;2674;49.722;10.892;2023-07-20T11:49:08;26.20;99.90
5304;DHT22;2674;49.722;10.892;2023-07-20T11:51:34;26.10;99.90
5304;DHT22;2674;49.722;10.892;2023-07-20T11:54:02;26.20;99.90
5304;DHT22;2674;49.722;10.892;2023-07-20T11:56:28;26.40;99.90
5304;DHT22;2674;49.722;10.892;2023-07-20T11:58:58;26.30;99.90
5304;DHT22;2674;49.722;10.892;2023-07-20T12:01:29;26.20;99.90
5304;DHT22;2674;49.722;10.892;2023-07-20T12:03:59;26.00;99.90
5304;DHT22;2674;49.722;10.892;2023-07-20T12:06:30;25.90;99.90
5304;DHT22;2674;49.722;10.892;2023-07-20T12:08:57;26.10;99.90
5304;DHT22;2674;49.722;10.892;2023-07-20T12:11:34;26.30;99.90
5304;DHT22;2674;49.722;10.892;2023-07-20T12:14:00;26.50;99.90
5304;DHT22;2674;49.722;10.892;2023-07-20T12:16:27;26.60;99.90
5304;DHT22;2674;49.722;10.892;2023-07-20T12:21:26;26.10;99.90
5304;DHT22;2674;49.722;10.892;2023-07-20T12:23:52;26.20;99.90
5304;DHT22;2674;49.722;10.892;2023-07-20T12:26:20;26.20;99.90
5304;DHT22;2674;49.722;10.892;2023-07-20T12:28:47;26.20;99.90
5304;DHT22;2674;49.722;10.892;2023-07-20T12:31:14;26.30;99.90
5304;DHT22;2674;49.722;10.892;2023-07-20T12:33:40;26.40;99.90
5304;DHT22;2674;49.722;10.892;2023-07-20T12:36:06;26.20;99.90
5304;DHT22;2674;49.722;10.892;2023-07-20T12:38:33;26.10;99.90
5304;DHT22;2674;49.722;10.892;2023-07-20T12:41:01;25.80;99.90
5304;DHT22;2674;49.722;10.892;2023-07-20T12:43:28;25.60;99.90
5304;DHT22;2674;49.722;10.892;2023-07-20T12:45:55;25.40;99.90
5304;DHT22;2674;49.722;10.892;2023-07-20T12:48:21;25.30;99.90
5304;DHT22;2674;49.722;10.892;2023-07-20T12:50:47;25.00;99.90
5304;DHT22;2674;49.722;10.892;2023-07-20T12:53:14;24.70;99.90
5304;DHT22;2674;49.722;10.892;2023-07-20T12:55:40;24.70;99.90
5304;DHT22;2674;49.722;10.892;2023-07-20T12:58:07;24.70;99.90
5304;DHT22;2674;49.722;10.892;2023-07-20T13:00:33;24.70;99.90
5304;DHT22;2674;49.722;10.892;2023-07-20T13:02:59;24.70;99.90
5304;DHT22;2674;49.722;10.892;2023-07-20T13:05:25;24.60;99.90
5304;DHT22;2674;49.722;10.892;2023-07-20T13:07:51;24.70;99.90
5304;DHT22;2674;49.722;10.892;2023-07-20T13:10:17;24.80;99.90
5304;DHT22;2674;49.722;10.892;2023-07-20T13:12:44;25.00;99.90
5304;DHT22;2674;49.722;10.892;2023-07-20T13:15:10;25.10;99.90
5304;DHT22;2674;49.722;10.892;2023-07-20T13:17:38;25.20;99.90
5304;DHT22;2674;49.722;10.892;2023-07-20T13:20:08;25.40;99.90
5304;DHT22;2674;49.722;10.892;2023-07-20T13:22:38;25.60;99.90
5304;DHT22;2674;49.722;10.892;2023-07-20T13:25:04;25.70;99.90
5304;DHT22;2674;49.722;10.892;2023-07-20T13:27:30;25.80;99.90
5304;DHT22;2674;49.722;10.892;2023-07-20T13:29:57;25.90;99.90
5304;DHT22;2674;49.722;10.892;2023-07-20T13:32:23;26.00;99.90
5304;DHT22;2674;49.722;10.892;2023-07-20T13:34:49;26.10;99.90
5304;DHT22;2674;49.722;10.892;2023-07-20T13:37:15;26.00;99.90
5304;DHT22;2674;49.722;10.892;2023-07-20T13:39:44;26.00;99.90
5304;DHT22;2674;49.722;10.892;2023-07-20T13:42:10;26.20;99.90
5304;DHT22;2674;49.722;10.892;2023-07-20T13:44:38;26.40;99.90
5304;DHT22;2674;49.722;10.892;2023-07-20T13:47:04;26.60;99.90
5304;DHT22;2674;49.722;10.892;2023-07-20T13:49:33;26.80;99.90
5304;DHT22;2674;49.722;10.892;2023-07-20T13:51:59;27.00;99.90
5304;DHT22;2674;49.722;10.892;2023-07-20T13:54:25;27.20;99.90
5304;DHT22;2674;49.722;10.892;2023-07-20T13:56:51;27.20;99.90
5304;DHT22;2674;49.722;10.892;2023-07-20T13:59:17;27.20;99.90
5304;DHT22;2674;49.722;10.892;2023-07-20T14:01:43;27.20;99.90
5304;DHT22;2674;49.722;10.892;2023-07-20T14:04:09;27.20;99.90
5304;DHT22;2674;49.722;10.892;2023-07-20T14:06:35;27.00;99.90
5304;DHT22;2674;49.722;10.892;2023-07-20T14:09:02;26.60;99.90
5304;DHT22;2674;49.722;10.892;2023-07-20T14:11:28;26.40;99.90
5304;DHT22;2674;49.722;10.892;2023-07-20T14:13:54;26.10;99.90
5304;DHT22;2674;49.722;10.892;2023-07-20T14:16:21;26.00;99.90
5304;DHT22;2674;49.722;10.892;2023-07-20T14:18:47;25.90;99.90
5304;DHT22;2674;49.722;10.892;2023-07-20T14:21:14;25.80;99.90
5304;DHT22;2674;49.722;10.892;2023-07-20T14:23:48;25.70;99.90
5304;DHT22;2674;49.722;10.892;2023-07-20T14:26:15;25.40;99.90
5304;DHT22;2674;49.722;10.892;2023-07-20T14:28:41;25.30;99.90
5304;DHT22;2674;49.722;10.892;2023-07-20T14:31:07;25.30;99.90
5304;DHT22;2674;49.722;10.892;2023-07-20T14:33:33;25.40;99.90
5304;DHT22;2674;49.722;10.892;2023-07-20T14:35:59;25.60;99.90
5304;DHT22;2674;49.722;10.892;2023-07-20T14:38:27;25.90;99.90
5304;DHT22;2674;49.722;10.892;2023-07-20T14:40:54;26.10;99.90
5304;DHT22;2674;49.722;10.892;2023-07-20T14:43:20;26.20;99.90
5304;DHT22;2674;49.722;10.892;2023-07-20T14:45:46;26.20;99.90
5304;DHT22;2674;49.722;10.892;2023-07-20T14:48:12;26.40;99.90
5304;DHT22;2674;49.722;10.892;2023-07-20T14:50:38;26.40;99.90
5304;DHT22;2674;49.722;10.892;2023-07-20T14:53:04;26.50;99.90
5304;DHT22;2674;49.722;10.892;2023-07-20T14:55:30;26.60;99.90
5304;DHT22;2674;49.722;10.892;2023-07-20T14:57:55;26.40;99.90
5304;DHT22;2674;49.722;10.892;2023-07-20T15:00:21;26.00;99.90
5304;DHT22;2674;49.722;10.892;2023-07-20T15:02:47;25.70;99.90
5304;DHT22;2674;49.722;10.892;2023-07-20T15:05:20;25.50;99.90
5304;DHT22;2674;49.722;10.892;2023-07-20T15:07:47;25.40;99.90
5304;DHT22;2674;49.722;10.892;2023-07-20T15:10:13;25.70;99.90
5304;DHT22;2674;49.722;10.892;2023-07-20T15:12:39;26.10;99.90
5304;DHT22;2674;49.722;10.892;2023-07-20T15:15:09;26.00;99.90
5304;DHT22;2674;49.722;10.892;2023-07-20T15:17:37;26.20;99.90
5304;DHT22;2674;49.722;10.892;2023-07-20T15:20:04;26.40;99.90
5304;DHT22;2674;49.722;10.892;2023-07-20T15:22:31;26.50;99.90
5304;DHT22;2674;49.722;10.892;2023-07-20T15:24:57;26.60;99.90
5304;DHT22;2674;49.722;10.892;2023-07-20T15:27:22;26.70;99.90
5304;DHT22;2674;49.722;10.892;2023-07-20T15:29:49;26.60;99.90
5304;DHT22;2674;49.722;10.892;2023-07-20T15:32:17;26.40;99.90
5304;DHT22;2674;49.722;10.892;2023-07-20T15:34:43;26.00;99.90
5304;DHT22;2674;49.722;10.892;2023-07-20T15:37:12;25.70;99.90
5304;DHT22;2674;49.722;10.892;2023-07-20T15:39:38;25.40;99.90
5304;DHT22;2674;49.722;10.892;2023-07-20T15:42:04;25.40;99.90
5304;DHT22;2674;49.722;10.892;2023-07-20T15:44:30;25.50;99.90
5304;DHT22;2674;49.722;10.892;2023-07-20T15:46:56;25.50;99.90
5304;DHT22;2674;49.722;10.892;2023-07-20T15:49:22;25.40;99.90
5304;DHT22;2674;49.722;10.892;2023-07-20T15:51:50;25.40;99.90
5304;DHT22;2674;49.722;10.892;2023-07-20T15:54:16;25.70;99.90
5304;DHT22;2674;49.722;10.892;2023-07-20T15:56:42;26.00;99.90
5304;DHT22;2674;49.722;10.892;2023-07-20T15:59:11;26.20;99.90
5304;DHT22;2674;49.722;10.892;2023-07-20T16:01:38;26.30;99.90
5304;DHT22;2674;49.722;10.892;2023-07-20T16:04:05;26.00;99.90